Time;durP1;ratioP1;P1;durP2;ratioP2;P2;SDS_P1;SDS_P2;PMS_P1;PMS_P2;Temp;Humidity;BMP_temperature;BMP_pressure;BME280_temperature;BME280_humidity;BME280_pressure;Samples;Min_cycle;Max_cycle;Signal;HPM_P1;HPM_P2
2023/03/10 00:00:04;;;;;;;11.83;3.93;;;9.20;99.90;;;;;;5075387;28;20462;-66
2023/03/10 00:02:33;;;;;;;8.70;3.20;;;9.20;99.90;;;;;;5075835;28;20694;-64
2023/03/10 00:05:01;;;;;;;11.50;3.50;;;9.20;99.90;;;;;;5076843;28;20486;-63
2023/03/10 00:07:28;;;;;;;10.83;3.67;;;9.20;99.90;;;;;;5077578;28;20461;-66
2023/03/10 00:09:56;;;;;;;10.33;3.80;;;9.30;99.90;;;;;;5077121;28;20756;-63
2023/03/10 00:12:26;;;;;;;5.97;4.00;;;9.20;99.90;;;;;;5076747;28;20461;-66
2023/03/10 00:14:54;;;;;;;11.67;3.77;;;9.20;99.90;;;;;;5076923;28;20461;-65
2023/03/10 00:17:22;;;;;;;8.50;3.20;;;9.20;99.90;;;;;;5077027;28;20461;-66
2023/03/10 00:19:49;;;;;;;10.53;3.30;;;9.20;99.90;;;;;;5076763;28;20465;-64
2023/03/10 00:22:16;;;;;;;8.90;3.27;;;9.30;99.90;;;;;;5076941;28;20469;-67
2023/03/10 00:24:43;;;;;;;5.80;3.77;;;9.30;99.90;;;;;;5077755;28;20488;-67
2023/03/10 00:27:10;;;;;;;8.23;2.60;;;9.30;99.90;;;;;;5083336;28;20440;-66
2023/03/10 00:29:37;;;;;;;7.50;3.27;;;9.30;99.90;;;;;;5083848;28;20471;-67
2023/03/10 00:32:10;;;;;;;8.97;3.33;;;9.30;99.90;;;;;;5083117;28;20961;-67
2023/03/10 00:34:38;;;;;;;4.33;2.30;;;9.30;99.90;;;;;;5082675;28;21096;-67
2023/03/10 00:37:26;;;;;;;5.70;2.60;;;9.30;99.90;;;;;;5083757;28;20465;-67
2023/03/10 00:39:57;;;;;;;6.27;3.00;;;9.30;99.90;;;;;;5083397;28;20456;-67
2023/03/10 00:42:27;;;;;;;5.83;2.97;;;9.30;99.90;;;;;;5083428;28;20457;-65
2023/03/10 00:44:54;;;;;;;5.93;3.43;;;9.30;99.90;;;;;;5082670;28;20858;-67
2023/03/10 00:47:21;;;;;;;4.03;2.40;;;9.30;99.90;;;;;;5083231;28;20472;-66
2023/03/10 00:49:50;;;;;;;4.60;2.50;;;9.30;99.90;;;;;;5083025;28;20465;-66
2023/03/10 00:52:17;;;;;;;4.13;2.70;;;9.40;99.90;;;;;;5083707;28;20902;-67
2023/03/10 00:54:44;;;;;;;5.53;2.77;;;9.40;99.90;;;;;;5083575;28;20460;-66
2023/03/10 00:57:11;;;;;;;5.33;3.10;;;9.40;99.90;;;;;;5083450;28;20530;-66
2023/03/10 00:59:38;;;;;;;4.07;2.93;;;9.40;99.90;;;;;;5082731;28;20453;-67
2023/03/10 01:02:05;;;;;;;4.13;2.43;;;9.40;99.90;;;;;;5083123;28;20461;-65
2023/03/10 01:04:32;;;;;;;5.90;3.20;;;9.50;99.90;;;;;;5083435;28;20481;-66
2023/03/10 01:07:01;;;;;;;4.10;2.90;;;9.50;99.90;;;;;;5083347;28;20460;-65
2023/03/10 01:09:28;;;;;;;3.50;2.80;;;9.50;99.90;;;;;;5083310;28;20865;-65
2023/03/10 01:11:55;;;;;;;5.03;3.10;;;9.50;99.90;;;;;;5082690;28;20748;-64
2023/03/10 01:14:22;;;;;;;7.57;2.70;;;9.50;99.90;;;;;;5083414;28;20568;-66
2023/03/10 01:16:49;;;;;;;3.47;2.50;;;9.60;99.90;;;;;;5082902;28;20882;-67
2023/03/10 01:19:17;;;;;;;5.03;3.40;;;9.60;99.90;;;;;;5082917;28;20508;-68
2023/03/10 01:21:44;;;;;;;6.20;3.07;;;9.60;99.90;;;;;;5082546;28;20491;-66
2023/03/10 01:24:15;;;;;;;8.33;3.37;;;9.60;99.90;;;;;;5083299;28;20484;-68
2023/03/10 01:26:42;;;;;;;3.53;2.90;;;9.60;99.90;;;;;;5082913;28;21445;-66
2023/03/10 01:29:09;;;;;;;5.37;2.87;;;9.60;99.90;;;;;;5082895;28;20461;-68
2023/03/10 01:31:36;;;;;;;3.37;2.23;;;9.60;99.90;;;;;;5082000;28;20465;-67
2023/03/10 01:34:03;;;;;;;5.57;2.83;;;9.60;99.90;;;;;;5083144;28;20468;-67
2023/03/10 01:36:31;;;;;;;3.50;3.00;;;9.50;99.90;;;;;;5080787;28;20458;-67
2023/03/10 01:38:59;;;;;;;5.37;2.80;;;9.50;99.90;;;;;;5078933;28;20464;-67
2023/03/10 01:41:27;;;;;;;4.07;2.30;;;9.50;99.90;;;;;;5079578;28;20504;-68
2023/03/10 01:43:56;;;;;;;4.50;2.83;;;9.50;99.90;;;;;;5079241;28;20467;-68
2023/03/10 01:46:45;;;;;;;3.90;3.40;;;9.50;99.90;;;;;;5079756;28;20493;-67
2023/03/10 01:49:22;;;;;;;6.00;3.50;;;9.50;99.90;;;;;;5079677;28;20759;-66
2023/03/10 01:51:53;;;;;;;4.70;4.00;;;9.40;99.90;;;;;;5080061;28;20483;-69
2023/03/10 01:54:25;;;;;;;3.60;3.07;;;9.50;99.90;;;;;;5078743;28;20465;-66
2023/03/10 01:56:56;;;;;;;3.30;3.00;;;9.40;99.90;;;;;;5079209;28;20462;-68
2023/03/10 01:59:25;;;;;;;3.53;2.70;;;9.50;99.90;;;;;;5079366;28;20465;-66
2023/03/10 02:01:57;;;;;;;2.50;2.20;;;9.40;99.90;;;;;;5079383;28;20870;-67
2023/03/10 02:04:32;;;;;;;5.70;3.20;;;9.40;99.90;;;;;;5079515;28;20458;-67
2023/03/10 02:07:01;;;;;;;4.90;3.23;;;9.40;99.90;;;;;;5078598;28;20889;-66
2023/03/10 02:09:28;;;;;;;3.17;2.70;;;9.50;99.90;;;;;;5079078;28;20453;-66
2023/03/10 02:11:58;;;;;;;4.10;2.87;;;9.40;99.90;;;;;;5079230;28;20468;-67
2023/03/10 02:14:26;;;;;;;4.37;2.70;;;9.50;99.90;;;;;;5078768;28;20461;-67
2023/03/10 02:16:53;;;;;;;4.80;3.23;;;9.50;99.90;;;;;;5078088;28;20468;-67
2023/03/10 02:19:34;;;;;;;3.77;2.90;;;9.50;99.90;;;;;;5078282;28;20929;-64
2023/03/10 02:22:06;;;;;;;3.07;2.77;;;9.40;99.90;;;;;;5079444;28;20530;-67
2023/03/10 02:24:42;;;;;;;4.20;2.93;;;9.40;99.90;;;;;;5078919;28;20469;-65
2023/03/10 02:27:17;;;;;;;4.50;2.43;;;9.40;99.90;;;;;;5078570;28;20522;-67
2023/03/10 02:29:48;;;;;;;3.57;2.43;;;9.40;99.90;;;;;;5079154;28;20889;-67
2023/03/10 02:32:16;;;;;;;2.50;1.87;;;9.30;99.90;;;;;;5078548;28;20465;-67
2023/03/10 02:34:43;;;;;;;2.80;1.90;;;9.30;99.90;;;;;;5078117;28;20457;-66
2023/03/10 02:37:19;;;;;;;2.87;2.23;;;9.30;99.90;;;;;;5078286;28;20912;-64
2023/03/10 02:39:46;;;;;;;2.80;2.20;;;9.30;99.90;;;;;;5078223;28;20472;-66
2023/03/10 02:42:15;;;;;;;2.50;1.80;;;9.30;99.90;;;;;;5078851;28;20457;-66
2023/03/10 02:44:43;;;;;;;4.50;2.30;;;9.40;99.90;;;;;;5078829;28;21279;-67
2023/03/10 02:47:11;;;;;;;3.47;1.97;;;9.40;99.90;;;;;;5078791;28;20898;-66
2023/03/10 02:49:40;;;;;;;2.40;1.90;;;9.40;99.90;;;;;;5076582;28;20472;-66
2023/03/10 02:52:11;;;;;;;2.23;1.80;;;9.40;99.90;;;;;;5078010;28;20920;-66
2023/03/10 02:54:39;;;;;;;2.27;1.60;;;9.40;99.90;;;;;;5078744;28;20453;-66
2023/03/10 02:57:06;;;;;;;3.43;1.60;;;9.30;99.90;;;;;;5078062;28;20461;-66
2023/03/10 02:59:34;;;;;;;2.20;1.57;;;9.30;99.90;;;;;;5078067;28;20465;-69
2023/03/10 03:02:01;;;;;;;2.70;1.80;;;9.30;99.90;;;;;;5077482;28;20477;-69
2023/03/10 03:04:28;;;;;;;2.97;2.10;;;9.30;99.90;;;;;;5078476;28;20472;-68
2023/03/10 03:06:56;;;;;;;3.80;1.97;;;9.20;99.90;;;;;;5077819;28;20810;-68
2023/03/10 03:09:23;;;;;;;3.33;1.60;;;9.20;99.90;;;;;;5077752;28;20461;-68
2023/03/10 03:11:50;;;;;;;3.50;2.07;;;9.10;99.90;;;;;;5078061;28;20471;-67
2023/03/10 03:14:17;;;;;;;3.23;1.70;;;9.10;99.90;;;;;;5078191;28;20457;-68
2023/03/10 03:16:46;;;;;;;3.53;2.20;;;9.00;99.90;;;;;;5077303;28;20460;-67
2023/03/10 03:19:13;;;;;;;2.73;1.80;;;9.00;99.90;;;;;;5077269;28;20492;-67
2023/03/10 03:21:40;;;;;;;3.20;1.83;;;9.10;99.90;;;;;;5077930;28;20461;-67
2023/03/10 03:24:08;;;;;;;2.83;2.03;;;9.10;99.90;;;;;;5078068;28;20465;-67
2023/03/10 03:26:35;;;;;;;5.37;2.20;;;9.10;99.90;;;;;;5077503;28;20489;-68
2023/03/10 03:29:02;;;;;;;3.57;2.20;;;9.10;99.90;;;;;;5076723;28;20473;-67
2023/03/10 03:31:29;;;;;;;5.27;3.80;;;9.10;99.90;;;;;;5077032;28;20465;-66
2023/03/10 03:33:57;;;;;;;6.40;3.47;;;9.10;99.90;;;;;;5077712;28;20917;-67
2023/03/10 03:36:24;;;;;;;6.17;4.13;;;9.10;99.90;;;;;;5077068;28;20457;-67
2023/03/10 03:38:51;;;;;;;7.83;4.93;;;9.10;99.90;;;;;;5077264;28;20528;-66
2023/03/10 03:41:19;;;;;;;5.80;5.20;;;9.10;99.90;;;;;;5077325;28;20461;-66
2023/03/10 03:43:46;;;;;;;7.07;5.13;;;9.10;99.90;;;;;;5076638;28;20461;-66
2023/03/10 03:46:13;;;;;;;6.60;4.70;;;9.20;99.90;;;;;;5077345;28;20489;-69
2023/03/10 03:48:40;;;;;;;5.97;5.30;;;9.10;99.90;;;;;;5077956;28;20845;-66
2023/03/10 03:51:09;;;;;;;6.17;5.57;;;9.10;99.90;;;;;;5077517;28;20465;-67
2023/03/10 03:53:36;;;;;;;7.07;5.13;;;9.20;99.90;;;;;;5076793;28;20785;-69
2023/03/10 03:56:03;;;;;;;5.13;4.63;;;9.20;99.90;;;;;;5077554;28;20770;-68
2023/03/10 03:58:30;;;;;;;6.10;5.03;;;9.20;99.90;;;;;;5077087;28;20902;-69
2023/03/10 04:00:57;;;;;;;7.33;5.80;;;9.10;99.90;;;;;;5076368;28;20743;-67
2023/03/10 04:03:24;;;;;;;9.30;6.30;;;9.10;99.90;;;;;;5076924;28;20461;-67
2023/03/10 04:05:51;;;;;;;8.47;7.10;;;9.20;99.90;;;;;;5076559;28;20496;-66
2023/03/10 04:08:20;;;;;;;9.10;7.33;;;9.10;99.90;;;;;;5076375;28;20458;-65
2023/03/10 04:10:51;;;;;;;8.80;7.20;;;9.10;99.90;;;;;;5076362;28;20461;-67
2023/03/10 04:13:18;;;;;;;10.80;7.60;;;9.10;99.90;;;;;;5077168;28;20461;-67
2023/03/10 04:15:45;;;;;;;11.60;8.27;;;9.10;99.90;;;;;;5076966;28;20465;-66
2023/03/10 04:18:12;;;;;;;9.70;7.20;;;9.00;99.90;;;;;;5076076;28;20961;-67
2023/03/10 04:20:39;;;;;;;12.80;7.00;;;9.00;99.90;;;;;;5077218;28;20908;-66
2023/03/10 04:23:06;;;;;;;11.53;6.60;;;9.00;99.90;;;;;;5076553;28;20461;-66
2023/03/10 04:25:35;;;;;;;11.00;6.70;;;9.00;99.90;;;;;;5076939;28;20493;-66
2023/03/10 04:28:02;;;;;;;9.87;6.17;;;9.00;99.90;;;;;;5076866;28;20457;-66
2023/03/10 04:30:32;;;;;;;8.00;5.73;;;9.00;99.90;;;;;;5076077;28;21704;-67
2023/03/10 04:33:00;;;;;;;7.53;4.60;;;8.90;99.90;;;;;;5076742;28;20897;-66
2023/03/10 04:35:28;;;;;;;9.13;5.07;;;8.90;99.90;;;;;;5076761;28;20461;-67
2023/03/10 04:37:55;;;;;;;8.03;4.47;;;9.00;99.90;;;;;;5060130;28;20458;-66
2023/03/10 04:40:22;;;;;;;7.47;3.23;;;8.90;99.90;;;;;;5057059;28;20733;-66
2023/03/10 04:42:50;;;;;;;6.40;3.13;;;8.90;99.90;;;;;;5072430;28;20465;-66
2023/03/10 04:45:18;;;;;;;5.10;2.80;;;8.90;99.90;;;;;;5056687;28;20454;-67
2023/03/10 04:47:45;;;;;;;5.03;2.70;;;8.90;99.90;;;;;;5056189;28;20462;-65
2023/03/10 04:50:16;;;;;;;7.90;2.67;;;8.80;99.90;;;;;;5056913;28;20462;-66
2023/03/10 04:52:44;;;;;;;7.03;3.30;;;8.80;99.90;;;;;;5062184;28;20466;-66
2023/03/10 04:55:11;;;;;;;5.87;2.50;;;8.80;99.90;;;;;;5076436;28;20523;-65
2023/03/10 04:57:39;;;;;;;5.10;2.60;;;8.80;99.90;;;;;;5076067;28;20457;-66
2023/03/10 05:00:11;;;;;;;5.30;2.87;;;8.80;99.90;;;;;;5076340;28;20465;-66
2023/03/10 05:02:38;;;;;;;7.43;2.90;;;8.90;99.90;;;;;;5075670;28;20515;-66
2023/03/10 05:05:06;;;;;;;6.00;3.00;;;8.80;99.90;;;;;;5061349;28;20461;-66
2023/03/10 05:07:33;;;;;;;5.20;2.50;;;8.80;99.90;;;;;;5076371;28;20468;-66
2023/03/10 05:10:01;;;;;;;7.37;2.77;;;8.90;99.90;;;;;;5076564;28;20895;-65
2023/03/10 05:12:28;;;;;;;5.77;3.00;;;8.90;99.90;;;;;;5078893;28;20465;-66
2023/03/10 05:14:55;;;;;;;6.40;2.20;;;8.90;99.90;;;;;;5079854;28;20881;-65
2023/03/10 05:17:23;;;;;;;8.43;2.27;;;8.90;99.90;;;;;;5078957;28;20453;-66
2023/03/10 05:19:50;;;;;;;14.23;3.10;;;8.90;99.90;;;;;;5079477;28;20528;-65
2023/03/10 05:22:18;;;;;;;9.87;2.93;;;8.90;99.90;;;;;;5078250;28;20461;-65
2023/03/10 05:24:46;;;;;;;9.20;2.53;;;8.90;99.90;;;;;;5078434;28;20450;-65
2023/03/10 05:27:13;;;;;;;5.30;3.00;;;8.90;99.90;;;;;;5079286;28;20496;-66
2023/03/10 05:29:41;;;;;;;12.57;2.93;;;8.90;99.90;;;;;;5079207;28;20893;-66
2023/03/10 05:32:08;;;;;;;5.30;3.10;;;8.90;99.90;;;;;;5078678;28;20484;-65
2023/03/10 05:34:36;;;;;;;8.73;4.83;;;8.90;99.90;;;;;;5078791;28;20742;-65
2023/03/10 05:37:04;;;;;;;11.70;3.43;;;8.90;99.90;;;;;;5079350;28;20457;-63
2023/03/10 05:39:31;;;;;;;17.27;4.03;;;8.90;99.90;;;;;;5079616;28;20461;-67
2023/03/10 05:41:58;;;;;;;15.93;3.53;;;8.90;99.90;;;;;;5077540;28;20761;-65
2023/03/10 05:44:25;;;;;;;9.97;3.83;;;8.90;99.90;;;;;;5078103;28;20755;-64
2023/03/10 05:46:52;;;;;;;13.37;4.07;;;8.90;99.90;;;;;;5077883;28;20492;-66
2023/03/10 05:49:19;;;;;;;11.07;4.53;;;8.80;99.90;;;;;;5078365;28;20465;-68
2023/03/10 05:51:48;;;;;;;13.70;4.43;;;8.80;99.90;;;;;;5076749;28;20468;-68
2023/03/10 05:54:15;;;;;;;11.43;5.10;;;8.80;99.90;;;;;;5077624;28;20472;-68
2023/03/10 05:56:42;;;;;;;5.73;3.10;;;8.80;99.90;;;;;;5077926;28;20464;-68
2023/03/10 05:59:09;;;;;;;6.73;3.80;;;8.70;99.90;;;;;;5078529;28;20476;-68
2023/03/10 06:01:37;;;;;;;8.70;4.00;;;8.70;99.90;;;;;;5078728;28;20461;-68
2023/03/10 06:04:04;;;;;;;5.97;3.17;;;8.70;99.90;;;;;;5079240;28;20500;-67
2023/03/10 06:06:31;;;;;;;13.60;4.87;;;8.70;99.90;;;;;;5078922;28;20499;-66
2023/03/10 06:09:00;;;;;;;9.73;4.07;;;8.70;99.90;;;;;;5078902;28;20461;-67
2023/03/10 06:11:28;;;;;;;12.37;4.90;;;8.70;99.90;;;;;;5079216;28;20470;-66
2023/03/10 06:13:55;;;;;;;8.20;4.30;;;8.70;99.90;;;;;;5079356;28;20462;-66
2023/03/10 06:16:22;;;;;;;10.33;4.87;;;8.60;99.90;;;;;;5078833;28;20464;-67
2023/03/10 06:18:53;;;;;;;5.40;4.00;;;8.70;99.90;;;;;;5077616;28;20947;-66
2023/03/10 06:21:20;;;;;;;9.83;3.70;;;8.70;99.90;;;;;;5076229;28;20468;-67
2023/03/10 06:23:47;;;;;;;7.90;3.80;;;8.70;99.90;;;;;;5076864;28;20902;-69
2023/03/10 06:26:17;;;;;;;9.10;3.97;;;8.70;99.90;;;;;;5077690;28;20500;-69
2023/03/10 06:28:46;;;;;;;7.37;3.97;;;8.70;99.90;;;;;;5075599;28;20469;-68
2023/03/10 06:31:15;;;;;;;5.80;3.10;;;8.70;99.90;;;;;;5075160;28;20465;-69
2023/03/10 06:33:42;;;;;;;11.80;3.83;;;8.70;99.90;;;;;;5076025;28;20886;-69
2023/03/10 06:36:11;;;;;;;8.13;3.23;;;8.80;99.90;;;;;;5075329;28;20449;-69
2023/03/10 06:38:38;;;;;;;9.80;3.87;;;8.80;99.90;;;;;;5073654;28;20956;-69
2023/03/10 06:41:06;;;;;;;7.90;3.90;;;8.80;99.90;;;;;;5074555;28;20445;-69
2023/03/10 06:43:35;;;;;;;9.97;3.87;;;8.80;99.90;;;;;;5076140;28;20458;-69
2023/03/10 06:46:04;;;;;;;10.40;3.80;;;8.80;99.90;;;;;;5074959;28;20814;-69
2023/03/10 06:48:31;;;;;;;7.97;3.60;;;8.80;99.90;;;;;;5075853;28;20461;-68
2023/03/10 06:50:58;;;;;;;11.37;5.10;;;8.80;99.90;;;;;;5075706;28;20462;-66
2023/03/10 06:53:26;;;;;;;23.80;15.70;;;8.80;99.90;;;;;;5092592;28;20473;-67
2023/03/10 06:56:00;;;;;;;13.33;9.10;;;8.80;99.90;;;;;;5081510;28;20530;-67
2023/03/10 06:58:27;;;;;;;9.73;4.47;;;8.80;99.90;;;;;;5077470;28;20456;-67
2023/03/10 07:00:58;;;;;;;10.47;5.47;;;8.80;99.90;;;;;;5074808;28;20473;-66
2023/03/10 07:03:27;;;;;;;7.50;3.40;;;8.80;99.90;;;;;;5077350;28;20467;-67
2023/03/10 07:05:54;;;;;;;8.50;4.13;;;8.80;99.90;;;;;;5076900;28;20512;-67
2023/03/10 07:08:24;;;;;;;9.00;3.60;;;8.80;99.90;;;;;;5077510;28;20560;-69
2023/03/10 07:10:51;;;;;;;8.37;3.73;;;8.80;99.90;;;;;;5077713;28;20902;-69
2023/03/10 07:13:18;;;;;;;11.43;3.37;;;8.80;99.90;;;;;;5075691;28;20481;-69
2023/03/10 07:15:45;;;;;;;10.20;4.20;;;8.80;99.90;;;;;;5077913;28;20902;-70
2023/03/10 07:18:15;;;;;;;6.67;4.30;;;8.80;99.90;;;;;;5065956;28;20475;-68
2023/03/10 07:20:43;;;;;;;10.03;4.30;;;8.70;99.90;;;;;;5077404;28;20436;-68
2023/03/10 07:23:10;;;;;;;9.50;4.40;;;8.70;99.90;;;;;;5077689;28;20461;-70
2023/03/10 07:25:38;;;;;;;11.00;4.63;;;8.70;99.90;;;;;;5077897;28;20464;-70
2023/03/10 07:28:06;;;;;;;12.10;7.17;;;8.70;99.90;;;;;;5076815;28;20508;-66
2023/03/10 07:30:34;;;;;;;10.77;5.93;;;8.70;99.90;;;;;;5077016;28;20797;-68
2023/03/10 07:33:01;;;;;;;8.30;5.00;;;8.70;99.90;;;;;;5077630;28;20473;-68
2023/03/10 07:35:30;;;;;;;8.37;4.30;;;8.80;99.90;;;;;;5076373;28;20476;-68
2023/03/10 07:37:57;;;;;;;8.47;3.90;;;8.80;99.90;;;;;;5077811;28;20759;-66
2023/03/10 07:40:24;;;;;;;7.97;3.00;;;8.80;99.90;;;;;;5076658;28;20770;-68
2023/03/10 07:42:53;;;;;;;9.33;4.10;;;8.80;99.90;;;;;;5076809;28;20465;-67
2023/03/10 07:45:20;;;;;;;8.43;3.87;;;8.90;99.90;;;;;;5077204;28;20955;-67
2023/03/10 07:47:47;;;;;;;5.87;3.57;;;8.90;99.90;;;;;;5077474;28;20504;-64
2023/03/10 07:50:14;;;;;;;6.87;3.13;;;8.90;99.90;;;;;;5075697;28;20465;-66
2023/03/10 07:52:43;;;;;;;5.07;3.20;;;9.00;99.90;;;;;;5076683;28;20461;-67
2023/03/10 07:55:11;;;;;;;5.33;2.80;;;9.10;99.90;;;;;;5061700;28;20473;-68
2023/03/10 07:57:38;;;;;;;9.30;4.23;;;9.10;99.90;;;;;;5058005;28;20470;-69
2023/03/10 08:00:06;;;;;;;5.73;2.70;;;9.20;99.90;;;;;;5066876;28;20470;-67
2023/03/10 08:02:33;;;;;;;7.60;2.83;;;9.20;99.90;;;;;;5075825;28;20464;-67
2023/03/10 08:05:00;;;;;;;6.47;3.20;;;9.20;99.90;;;;;;5076584;28;20449;-68
2023/03/10 08:07:27;;;;;;;5.70;3.67;;;9.20;99.90;;;;;;5076315;28;20504;-68
2023/03/10 08:09:56;;;;;;;5.33;2.80;;;9.20;99.90;;;;;;5076164;28;20461;-68
2023/03/10 08:12:23;;;;;;;8.43;3.17;;;9.20;99.90;;;;;;5076053;28;20496;-67
2023/03/10 08:14:50;;;;;;;6.90;3.20;;;9.20;99.90;;;;;;5075396;28;20472;-67
2023/03/10 08:17:18;;;;;;;8.00;3.90;;;9.20;99.90;;;;;;5075145;28;20510;-66
2023/03/10 08:19:45;;;;;;;10.63;3.73;;;9.30;99.90;;;;;;5075181;28;20469;-66
2023/03/10 08:22:12;;;;;;;7.80;3.50;;;9.50;99.90;;;;;;5070708;28;20925;-67
2023/03/10 08:24:39;;;;;;;5.20;3.00;;;9.50;99.90;;;;;;5073461;28;20734;-65
2023/03/10 08:27:08;;;;;;;4.73;2.70;;;9.60;99.90;;;;;;5075436;28;20941;-66
2023/03/10 08:29:36;;;;;;;10.07;3.90;;;9.60;99.90;;;;;;5076088;28;20453;-66
2023/03/10 08:32:04;;;;;;;5.07;3.03;;;9.50;99.90;;;;;;5074148;28;20474;-66
2023/03/10 08:34:32;;;;;;;4.97;2.60;;;9.60;99.90;;;;;;5074241;28;20464;-65
2023/03/10 08:36:59;;;;;;;10.53;3.30;;;9.70;99.90;;;;;;5074234;28;20457;-65
2023/03/10 08:39:27;;;;;;;4.03;2.63;;;9.70;99.90;;;;;;5075352;28;20461;-65
2023/03/10 08:41:54;;;;;;;5.20;2.20;;;9.70;99.90;;;;;;5072674;28;20460;-65
2023/03/10 08:44:23;;;;;;;5.23;2.70;;;9.70;99.90;;;;;;5072678;28;20468;-67
2023/03/10 08:46:50;;;;;;;5.67;2.50;;;9.70;99.90;;;;;;5074989;28;20488;-66
2023/03/10 08:49:19;;;;;;;7.07;3.10;;;9.70;99.90;;;;;;5074283;28;20469;-68
2023/03/10 08:51:46;;;;;;;8.83;3.77;;;9.70;99.90;;;;;;5077834;28;20932;-68
2023/03/10 08:54:18;;;;;;;6.70;2.67;;;9.70;99.90;;;;;;5077274;28;20461;-66
2023/03/10 08:56:46;;;;;;;6.27;3.10;;;9.70;99.90;;;;;;5073903;28;20447;-66
2023/03/10 08:59:13;;;;;;;6.30;3.50;;;9.70;99.90;;;;;;5059874;28;20496;-67
2023/03/10 09:01:41;;;;;;;6.27;3.27;;;9.60;99.90;;;;;;5059298;28;20890;-67
2023/03/10 09:04:10;;;;;;;7.30;3.20;;;9.60;99.90;;;;;;5077988;28;20449;-66
2023/03/10 09:06:38;;;;;;;5.10;2.83;;;9.60;99.90;;;;;;5078841;28;20535;-65
2023/03/10 09:09:07;;;;;;;6.37;3.00;;;9.60;99.90;;;;;;5080154;28;20461;-66
2023/03/10 09:11:37;;;;;;;5.13;3.43;;;9.60;99.90;;;;;;5080616;28;20464;-65
2023/03/10 09:14:04;;;;;;;6.77;3.23;;;9.70;99.90;;;;;;5077179;28;20469;-66
2023/03/10 09:16:32;;;;;;;11.50;2.90;;;9.80;99.90;;;;;;5079298;28;20453;-66
2023/03/10 09:19:01;;;;;;;6.03;3.17;;;9.80;99.90;;;;;;5078211;28;20975;-67
2023/03/10 09:21:30;;;;;;;5.53;3.03;;;9.80;99.90;;;;;;5079383;28;20904;-67
2023/03/10 09:23:57;;;;;;;5.60;3.10;;;9.80;99.90;;;;;;5078455;28;20873;-67
2023/03/10 09:26:25;;;;;;;5.60;3.50;;;9.80;99.90;;;;;;5076831;28;20457;-69
2023/03/10 09:28:52;;;;;;;5.90;2.90;;;9.80;99.90;;;;;;5077750;28;20937;-68
2023/03/10 09:31:23;;;;;;;7.97;3.60;;;9.80;99.90;;;;;;5077285;28;20770;-68
2023/03/10 09:33:50;;;;;;;9.47;3.80;;;9.90;99.90;;;;;;5078451;28;20457;-67
2023/03/10 09:36:19;;;;;;;8.37;3.67;;;9.90;99.90;;;;;;5078223;28;20468;-68
2023/03/10 09:38:46;;;;;;;6.63;3.60;;;10.00;99.90;;;;;;5077655;28;20555;-67
2023/03/10 09:41:46;;;;;;;6.77;3.10;;;10.20;99.90;;;;;;5076560;28;20873;-67
2023/03/10 09:44:25;;;;;;;11.70;4.63;;;10.40;99.90;;;;;;5076672;28;20476;-66
2023/03/10 09:47:05;;;;;;;8.80;4.47;;;10.50;99.90;;;;;;5079802;28;20761;-66
2023/03/10 09:49:37;;;;;;;9.50;4.70;;;10.70;99.90;;;;;;5078958;28;20460;-65
2023/03/10 09:52:19;;;;;;;10.87;3.63;;;10.80;99.90;;;;;;5076267;28;20473;-66
2023/03/10 09:54:56;;;;;;;12.33;4.33;;;11.00;99.90;;;;;;5077523;28;20473;-66
2023/03/10 09:57:23;;;;;;;11.30;3.50;;;11.10;99.90;;;;;;5078313;28;20895;-64
2023/03/10 09:59:55;;;;;;;8.13;2.83;;;11.40;99.90;;;;;;5078682;28;20461;-63
2023/03/10 10:02:25;;;;;;;7.13;3.30;;;11.40;99.90;;;;;;5078599;28;20461;-63
2023/03/10 10:04:55;;;;;;;7.07;3.67;;;11.50;99.90;;;;;;5076825;28;20454;-64
2023/03/10 10:07:28;;;;;;;7.80;4.20;;;11.40;99.90;;;;;;5078075;28;20485;-63
2023/03/10 10:10:01;;;;;;;5.87;2.70;;;11.60;99.90;;;;;;5079369;28;20461;-63
2023/03/10 10:12:28;;;;;;;8.60;3.20;;;11.70;99.90;;;;;;5078433;28;20458;-64
2023/03/10 10:14:58;;;;;;;9.43;3.13;;;11.80;99.90;;;;;;5078684;28;20693;-62
2023/03/10 10:17:38;;;;;;;9.50;3.97;;;11.80;99.90;;;;;;5078077;28;20465;-63
2023/03/10 10:20:17;;;;;;;7.40;3.23;;;11.70;99.90;;;;;;5078660;28;20465;-64
2023/03/10 10:22:46;;;;;;;11.60;4.03;;;11.70;99.90;;;;;;5078335;28;20555;-64
2023/03/10 10:25:19;;;;;;;4.83;2.70;;;11.80;99.90;;;;;;5079225;28;20847;-64
2023/03/10 10:27:51;;;;;;;10.93;3.40;;;12.10;99.90;;;;;;5078034;28;20507;-63
2023/03/10 10:30:36;;;;;;;8.40;3.47;;;12.80;99.90;;;;;;5078471;28;20466;-64
2023/03/10 10:33:05;;;;;;;7.67;3.10;;;13.00;99.90;;;;;;5078440;28;20461;-64
2023/03/10 10:35:34;;;;;;;6.43;3.27;;;12.90;99.90;;;;;;5078695;28;20705;-64
2023/03/10 10:38:06;;;;;;;10.87;3.43;;;12.70;1.00;;;;;;5078051;28;20468;-64
2023/03/10 10:40:36;;;;;;;6.00;3.40;;;12.70;99.90;;;;;;5077759;28;20457;-64
2023/03/10 10:43:06;;;;;;;7.10;3.40;;;12.70;99.90;;;;;;5078128;28;20476;-64
2023/03/10 10:45:36;;;;;;;7.80;3.33;;;12.90;99.90;;;;;;5077713;28;20882;-65
2023/03/10 10:48:04;;;;;;;6.47;3.47;;;13.70;99.90;;;;;;5078027;28;20477;-64
2023/03/10 10:50:32;;;;;;;7.40;2.60;;;13.80;27.00;;;;;;5076688;28;20454;-64
2023/03/10 10:53:23;;;;;;;6.30;2.53;;;13.30;1.00;;;;;;5071952;28;20774;-64
2023/03/10 10:56:01;;;;;;;7.37;3.20;;;13.20;1.00;;;;;;5077517;28;20512;-64
2023/03/10 10:58:31;;;;;;;7.90;3.40;;;14.10;1.00;;;;;;5078565;28;20893;-64
2023/03/10 11:01:01;;;;;;;5.30;2.70;;;14.60;1.00;;;;;;5076074;28;20458;-64
2023/03/10 11:03:31;;;;;;;7.30;3.40;;;14.60;1.00;;;;;;5076367;28;20468;-64
2023/03/10 11:05:59;;;;;;;4.57;2.50;;;14.50;1.00;;;;;;5075809;28;20462;-64
2023/03/10 11:08:49;;;;;;;8.80;2.90;;;14.30;1.00;;;;;;5075869;28;20503;-64
2023/03/10 11:11:24;;;;;;;6.40;2.67;;;13.80;1.00;;;;;;5074033;28;20442;-64
2023/03/10 11:14:11;;;;;;;7.80;3.00;;;13.30;1.00;;;;;;5075446;28;20928;-65
2023/03/10 11:16:50;;;;;;;5.90;2.77;;;13.00;1.00;;;;;;5075727;28;20457;-64
2023/03/10 11:19:27;;;;;;;6.40;3.13;;;13.00;1.00;;;;;;5077057;28;20499;-64
2023/03/10 11:22:04;;;;;;;7.70;2.97;;;12.70;1.00;;;;;;5076902;28;20465;-64
2023/03/10 11:24:40;;;;;;;5.00;2.00;;;12.60;1.00;;;;;;5077735;28;20453;-62
2023/03/10 11:27:14;;;;;;;6.30;2.60;;;12.50;1.00;;;;;;5077298;28;20514;-63
2023/03/10 11:29:57;;;;;;;7.70;2.97;;;12.60;1.00;;;;;;5077629;28;20825;-66
2023/03/10 11:32:34;;;;;;;5.10;2.47;;;12.60;1.00;;;;;;5073520;28;20459;-63
2023/03/10 11:35:13;;;;;;;8.47;3.33;;;12.60;1.00;;;;;;5073876;28;20806;-64
2023/03/10 11:37:47;;;;;;;4.67;2.43;;;12.60;1.00;;;;;;5074350;28;20472;-63
2023/03/10 11:40:23;;;;;;;7.00;2.40;;;12.60;1.00;;;;;;5075380;28;20476;-65
2023/03/10 11:43:00;;;;;;;4.80;2.37;;;12.30;1.00;;;;;;5073474;28;20467;-62
2023/03/10 11:45:33;;;;;;;5.63;2.70;;;11.80;1.00;;;;;;5056102;28;20912;-62
2023/03/10 11:48:17;;;;;;;8.47;2.50;;;11.60;1.00;;;;;;5064134;28;20481;-63
2023/03/10 11:50:51;;;;;;;5.90;2.80;;;11.30;1.00;;;;;;5075632;28;20465;-64
2023/03/10 11:53:28;;;;;;;6.20;2.60;;;11.20;99.90;;;;;;5075322;28;20515;-63
2023/03/10 11:55:59;;;;;;;6.30;2.83;;;11.20;99.90;;;;;;5055671;28;20468;-64
2023/03/10 11:58:36;;;;;;;6.40;3.73;;;11.00;99.90;;;;;;5062549;28;20476;-63
2023/03/10 12:01:04;;;;;;;6.37;2.70;;;10.90;1.00;;;;;;5074911;28;20761;-63
2023/03/10 12:03:40;;;;;;;9.97;2.70;;;10.80;1.00;;;;;;5075079;28;20439;-65
2023/03/10 12:06:12;;;;;;;6.50;2.80;;;10.60;99.90;;;;;;5075135;28;20468;-64
2023/03/10 12:08:41;;;;;;;6.57;2.83;;;10.50;1.00;;;;;;5075591;28;20484;-63
2023/03/10 12:11:16;;;;;;;6.43;3.03;;;10.50;1.00;;;;;;5075278;28;20457;-63
2023/03/10 12:13:46;;;;;;;9.53;4.57;;;10.50;12.40;;;;;;5075088;28;20453;-63
2023/03/10 12:16:18;;;;;;;5.53;2.87;;;10.40;99.90;;;;;;5071319;28;20474;-64
2023/03/10 12:18:46;;;;;;;4.27;2.27;;;10.20;99.90;;;;;;5075326;28;20810;-65
2023/03/10 12:21:16;;;;;;;5.97;3.00;;;10.20;99.90;;;;;;5076223;28;20462;-66
2023/03/10 12:23:45;;;;;;;7.13;2.77;;;10.10;14.70;;;;;;5076885;28;20480;-66
2023/03/10 12:26:13;;;;;;;3.40;2.60;;;10.00;99.90;;;;;;5076280;28;20778;-65
2023/03/10 12:28:41;;;;;;;5.80;2.93;;;9.90;99.90;;;;;;5075933;28;20485;-65
2023/03/10 12:31:10;;;;;;;7.27;3.07;;;9.90;99.90;;;;;;5075533;28;20798;-67
2023/03/10 12:34:13;;;;;;;5.10;3.00;;;10.00;99.90;;;;;;5077222;28;20534;-68
2023/03/10 12:36:44;;;;;;;4.93;2.80;;;9.80;99.90;;;;;;5077154;28;20453;-65
2023/03/10 12:39:36;;;;;;;7.50;3.07;;;9.70;99.90;;;;;;5075920;28;20476;-67
2023/03/10 12:42:25;;;;;;;4.00;2.67;;;9.60;1.00;;;;;;5076469;28;20449;-67
2023/03/10 12:44:58;;;;;;;4.93;3.20;;;9.70;1.00;;;;;;5076490;28;20466;-68
2023/03/10 12:47:46;;;;;;;7.60;3.40;;;9.80;99.90;;;;;;5076369;28;20457;-66
2023/03/10 12:50:26;;;;;;;6.30;3.63;;;9.80;99.90;;;;;;5076415;28;20457;-67
2023/03/10 12:52:59;;;;;;;7.37;4.37;;;9.80;99.90;;;;;;5075634;28;20464;-67
2023/03/10 12:55:27;;;;;;;5.50;2.90;;;9.90;99.90;;;;;;5075900;28;20457;-67
2023/03/10 12:58:03;;;;;;;7.33;3.00;;;9.90;99.90;;;;;;5077103;28;20453;-66
2023/03/10 13:00:44;;;;;;;5.07;2.80;;;10.00;97.20;;;;;;5076240;28;20503;-69
2023/03/10 13:03:23;;;;;;;7.03;3.13;;;10.10;3.90;;;;;;5076340;28;20457;-68
2023/03/10 13:06:00;;;;;;;5.67;3.23;;;10.20;1.00;;;;;;5076501;28;20519;-66
2023/03/10 13:08:36;;;;;;;6.83;3.37;;;10.30;23.30;;;;;;5076567;28;20488;-66